• Join FlightAware (Why Join?)
  • Login
  • US Flag 
01:24AM EDT


 

Airport Tracker/Info


-or-


 

Live Flight TrackerFlight Track Log ✈ N4782E ✈ 30-Apr-2013 ✈ KSAC - KCCR

Flight Track Log - Related Links

Times and Time Zones

All times are in EDT time to prevent confusion due to time zone crossing. See the N4782E flight status page for this flight to view local times or setup timezone preferences in your user account.

Time Position Orientation Groundspeed Altitude Reporting Facility
EDT Latitude Longitude Course Direction KTS MPH feet Rate Location/Type
08:38PM 38.5167 -121.5167 270° West 64 74 1,200  Level Northern Cal TRACON
08:39PM 38.5000 -121.5333 218° Southwest 67 77 1,700 480 Climbing Northern Cal TRACON
08:42PM 38.4408 -121.5506 193° South 105 121 3,000 480 Climbing Oakland Center
08:43PM 38.3589 -121.6029 212° Southwest  Level FlightAware Approximate
08:43PM 38.4158 -121.5661 206° Southwest 103 119 3,500  Level Oakland Center
08:44PM 38.3922 -121.5783 202° Southwest 95 109 4,000 240 Climbing Oakland Center
08:45PM 38.3722 -121.6011 222° Southwest 96 110 4,100  Climbing Oakland Center
08:46PM 38.3478 -121.6203 212° Southwest 102 117 4,100 -60 Level Oakland Center
08:47PM 38.3175 -121.6356 202° Southwest 113 130 4,000 -60 Descending Oakland Center
08:48PM 38.2925 -121.6664 224° Southwest 123 142 4,000  Level Oakland Center
08:49PM 38.2644 -121.6917 215° Southwest 123 142 4,000 -60 Level Oakland Center
08:50PM 38.2350 -121.7158 213° Southwest 125 144 3,900  Descending Oakland Center
08:51PM 38.2017 -121.7322 201° Southwest 127 146 4,000 -180 Climbing Oakland Center
08:52PM 38.1681 -121.7461 198° South 127 146 3,600 -660 Descending Oakland Center
08:53PM 38.1489 -121.7783 233° Southwest 98 113 2,700 -840 Descending Oakland Center
08:54PM 38.1439 -121.8083 258° West 89 102 2,000 -300 Descending Oakland Center
08:55PM 38.1389 -121.8381 258° West 88 101 2,100 60 Climbing Oakland Center
08:56PM 38.1311 -121.8728 254° West 99 114 2,200  Climbing Oakland Center
08:57PM 38.1358 -121.9053 280° West 94 108 2,200 -120 Level Oakland Center
08:58PM 38.1350 -121.9411 268° West 101 116 2,000 -60 Descending Oakland Center
08:59PM 38.1331 -121.9775 266° West 104 120 2,100  Climbing Oakland Center
09:00PM 38.1261 -122.0075 254° West 123 142 2,000 -300 Descending Oakland Center
09:01PM 38.0942 -122.0069 179° South 119 137 1,500 -300 Descending Oakland Center
09:02PM 38.0653 -122.0222 203° Southwest 115 132 1,400 -180 Descending Oakland Center
09:03PM 38.0361 -122.0333 197° South 111 128 1,200 -360 Descending Oakland Center
09:04PM 38.0072 -122.0481 202° Southwest 101 116 700 -300 Descending Oakland Center
09:05PM 37.9839 -122.0339 154° Southeast 97 112 600 -120 Descending Oakland Center
09:06PM 37.9700 -122.0628 239° Southwest 98 113 500 -120 Descending Oakland Center